FranceFixed distance
Luchon Aneto Trail - L'Ultra Lat
6–7 Jul2024
Distance
85km
Finishers
273238 men35 women
Winning time
6:48:30h
Median pace
7.83km/h
Pace distribution
273 finishers · 5.96–12.48 km/h · mean 8.01
Every finisher ran the same 85 km course, so these paces are directly comparable.
Histogram of finisher pace. 273 finishers ranged from 5.96 to 12.48 kilometres per hour, with a mean of 8.01 and a median of 7.83. The busiest band is 7.5 to 8.0 kilometres per hour, with 49 finishers.
Results
Ranks 1–50 of 273
| Rank | Runner | Time | Pace | Cat. | Placing |
|---|---|---|---|---|---|
| 1 | 6:48:30h | 12.48 | M23 | 1st M · 1st M23 | |
| 2 | PAU Triathlon Rrunning... | 7:07:35h | 11.93 | M40 | 2nd M · 1st M40 |
| 3 | VO2 MAX Tarascon-SUR-A... | 7:15:07h | 11.72 | M23 | 3rd M · 2nd M23 |
| 4 | 7:47:14h | 10.91 | MU23 | 4th M · 1st MU23 | |
| 5 | *Rabastens | 7:52:32h | 10.79 | M40 | 5th M · 2nd M40 |
| 6 | CAP Endurance | 7:57:04h | 10.69 | M40 | 6th M · 3rd M40 |
| 7 | Gourdan Polignan Commi... | 7:58:19h | 10.66 | M35 | 7th M · 1st M35 |
| 8 | Urtxintxak | 7:59:54h | 10.63 | M23 | 8th M · 3rd M23 |
| 9 | CA Villenave D'Ornon | 8:03:26h | 10.55 | W23 | 1st F · 1st W23 |
| 10 | Esprit Sport / Soubestre | 8:06:45h | 10.48 | M23 | 9th M · 4th M23 |
| 11 | Asptt Nantes Trail | 8:08:49h | 10.43 | M35 | 10th M · 2nd M35 |
| 12 | 8:15:12h | 10.30 | MU23 | 11th M · 2nd MU23 | |
| 13 | Bo217 | 8:15:18h | 10.30 | M23 | 12th M · 5th M23 |
| 14 | 8:28:50h | 10.02 | M45 | 13th M · 1st M45 | |
| 15 | *Anglet | 8:33:57h | 9.92 | M50 | 14th M · 1st M50 |
| 16 | CAP Endurance | 8:35:33h | 9.89 | M23 | 15th M · 6th M23 |
| 17 | CK Pontarlier | 8:36:05h | 9.88 | M35 | 16th M · 3rd M35 |
| 18 | 8:40:02h | 9.81 | M35 | 17th M · 4th M35 | |
| 18 | Heugas Jogging Club | 8:40:02h | 9.81 | M40 | 17th M · 4th M40 |
| 20 | 8:42:09h | 9.77 | M40 | 19th M · 5th M40 | |
| 21 | *Bordeaux | 8:44:11h | 9.73 | M35 | 20th M · 5th M35 |
| 22 | 8:45:39h | 9.70 | M23 | 21st M · 7th M23 | |
| 23 | MAC Adam Colomiers | 8:46:05h | 9.69 | M35 | 22nd M · 6th M35 |
| 24 | CAP Endurance | 8:46:20h | 9.69 | M35 | 23rd M · 7th M35 |
| 25 | Spuc /Team Mycoach 64 | 8:47:25h | 9.67 | W50 | 2nd F · 1st W50 |
| 26 | *Montardon | 8:47:58h | 9.66 | M40 | 24th M · 6th M40 |
| 27 | Millet Mountain / Sara... | 8:48:12h | 9.65 | M35 | 25th M · 8th M35 |
| 28 | Esprit Sports | 8:50:07h | 9.62 | M23 | 26th M · 8th M23 |
| 29 | *Bordeaux | 8:51:23h | 9.60 | W23 | 3rd F · 2nd W23 |
| 30 | 8:52:37h | 9.57 | M35 | 27th M · 9th M35 | |
| 31 | Traileurs Ferrailleurs | 8:57:45h | 9.48 | M45 | 28th M · 2nd M45 |
| 32 | 8:58:21h | 9.47 | W40 | 4th F · 1st W40 | |
| 33 | RMT/Teamtrailcaillou | 8:59:08h | 9.46 | M35 | 29th M · 10th M35 |
| 34 | Annecy Athlétisme | 9:02:18h | 9.40 | M23 | 30th M · 9th M23 |
| 35 | *Cazenave-Serres-Et-Al... | 9:02:57h | 9.39 | M40 | 31st M · 7th M40 |
| 36 | *Eysines | 9:03:28h | 9.38 | M35 | 32nd M · 11th M35 |
| 37 | 9:06:25h | 9.33 | M40 | 33rd M · 8th M40 | |
| 38 | Airbus Running | 9:07:24h | 9.32 | M45 | 34th M · 3rd M45 |
| 39 | 9:08:42h | 9.29 | M40 | 35th M · 9th M40 | |
| 40 | TNT | 9:09:19h | 9.28 | W35 | 5th F · 1st W35 |
| 41 | *Benque | 9:10:34h | 9.26 | M45 | 36th M · 4th M45 |
| 42 | Club Alpin Français de... | 9:10:46h | 9.26 | M23 | 37th M · 10th M23 |
| 43 | Margalloteam | 9:10:47h | 9.26 | M40 | 38th M · 10th M40 |
| 44 | 9:13:18h | 9.22 | M40 | 39th M · 11th M40 | |
| 45 | ABV Montaigu | 9:15:12h | 9.19 | M23 | 40th M · 11th M23 |
| 46 | 9:19:26h | 9.12 | M45 | 41st M · 5th M45 | |
| 46 | ASN | 9:19:26h | 9.12 | M35 | 41st M · 12th M35 |
| 48 | Ginestas Xtrail | 9:19:37h | 9.11 | M35 | 43rd M · 13th M35 |
| 49 | 9:19:38h | 9.11 | M23 | 44th M · 12th M23 | |
| 50 | Toac Triathlon | 9:21:31h | 9.08 | M35 | 45th M · 14th M35 |
- 11st M · 1st M23Time6:48:30hPace12.48Cat.M23
- 2PAU Triathlon Rrunning...2nd M · 1st M40Time7:07:35hPace11.93Cat.M40
- 3VO2 MAX Tarascon-SUR-A...3rd M · 2nd M23Time7:15:07hPace11.72Cat.M23
- 44th M · 1st MU23Time7:47:14hPace10.91Cat.MU23
- 5*Rabastens5th M · 2nd M40Time7:52:32hPace10.79Cat.M40
- 6CAP Endurance6th M · 3rd M40Time7:57:04hPace10.69Cat.M40
- 7Gourdan Polignan Commi...7th M · 1st M35Time7:58:19hPace10.66Cat.M35
- 8Urtxintxak8th M · 3rd M23Time7:59:54hPace10.63Cat.M23
- 9CA Villenave D'Ornon1st F · 1st W23Time8:03:26hPace10.55Cat.W23
- 10Esprit Sport / Soubestre9th M · 4th M23Time8:06:45hPace10.48Cat.M23
- 11Asptt Nantes Trail10th M · 2nd M35Time8:08:49hPace10.43Cat.M35
- 1211th M · 2nd MU23Time8:15:12hPace10.30Cat.MU23
- 13Bo21712th M · 5th M23Time8:15:18hPace10.30Cat.M23
- 1413th M · 1st M45Time8:28:50hPace10.02Cat.M45
- 15*Anglet14th M · 1st M50Time8:33:57hPace9.92Cat.M50
- 16CAP Endurance15th M · 6th M23Time8:35:33hPace9.89Cat.M23
- 17CK Pontarlier16th M · 3rd M35Time8:36:05hPace9.88Cat.M35
- 1817th M · 4th M35Time8:40:02hPace9.81Cat.M35
- 18Heugas Jogging Club17th M · 4th M40Time8:40:02hPace9.81Cat.M40
- 2019th M · 5th M40Time8:42:09hPace9.77Cat.M40
- 21*Bordeaux20th M · 5th M35Time8:44:11hPace9.73Cat.M35
- 2221st M · 7th M23Time8:45:39hPace9.70Cat.M23
- 23MAC Adam Colomiers22nd M · 6th M35Time8:46:05hPace9.69Cat.M35
- 24CAP Endurance23rd M · 7th M35Time8:46:20hPace9.69Cat.M35
- 25Spuc /Team Mycoach 642nd F · 1st W50Time8:47:25hPace9.67Cat.W50
- 26*Montardon24th M · 6th M40Time8:47:58hPace9.66Cat.M40
- 27Millet Mountain / Sara...25th M · 8th M35Time8:48:12hPace9.65Cat.M35
- 28Esprit Sports26th M · 8th M23Time8:50:07hPace9.62Cat.M23
- 29*Bordeaux3rd F · 2nd W23Time8:51:23hPace9.60Cat.W23
- 3027th M · 9th M35Time8:52:37hPace9.57Cat.M35
- 31Traileurs Ferrailleurs28th M · 2nd M45Time8:57:45hPace9.48Cat.M45
- 324th F · 1st W40Time8:58:21hPace9.47Cat.W40
- 33RMT/Teamtrailcaillou29th M · 10th M35Time8:59:08hPace9.46Cat.M35
- 34Annecy Athlétisme30th M · 9th M23Time9:02:18hPace9.40Cat.M23
- 35*Cazenave-Serres-Et-Al...31st M · 7th M40Time9:02:57hPace9.39Cat.M40
- 36*Eysines32nd M · 11th M35Time9:03:28hPace9.38Cat.M35
- 3733rd M · 8th M40Time9:06:25hPace9.33Cat.M40
- 38Airbus Running34th M · 3rd M45Time9:07:24hPace9.32Cat.M45
- 3935th M · 9th M40Time9:08:42hPace9.29Cat.M40
- 40TNT5th F · 1st W35Time9:09:19hPace9.28Cat.W35
- 41*Benque36th M · 4th M45Time9:10:34hPace9.26Cat.M45
- 42Club Alpin Français de...37th M · 10th M23Time9:10:46hPace9.26Cat.M23
- 43Margalloteam38th M · 10th M40Time9:10:47hPace9.26Cat.M40
- 4439th M · 11th M40Time9:13:18hPace9.22Cat.M40
- 45ABV Montaigu40th M · 11th M23Time9:15:12hPace9.19Cat.M23
- 4641st M · 5th M45Time9:19:26hPace9.12Cat.M45
- 46ASN41st M · 12th M35Time9:19:26hPace9.12Cat.M35
- 48Ginestas Xtrail43rd M · 13th M35Time9:19:37hPace9.11Cat.M35
- 4944th M · 12th M23Time9:19:38hPace9.11Cat.M23
- 50Toac Triathlon45th M · 14th M35Time9:21:31hPace9.08Cat.M35
Showing ranks 1–50 of 273